Terminal Aerodrome Forecast
Issued by NWS

Home | Current Version | Previous Version | Text Only | Print | Product List | Glossary On
Versions: 1 2 3 4 5 6 7 8 9 10 11 12 13 14 15 16 17 18 19
258
FTUS43 KDTX 102346 CCA
TAFDET
TAF COR
KDET 102346Z 1100/1124 29013G18KT P6SM -SHSN SCT035 BKN050
      TEMPO 1100/1102 2SM -SHSN BKN025 OVC035
     FM110200 29012KT P6SM SCT035 BKN050
     FM110500 28010KT P6SM SCT045
     FM111400 28013G20KT P6SM SCT045
     FM111600 29012G20KT P6SM BKN040=

USA.gov is the U.S. government's official web portal to all federal, state and local government web resources and services.